Time,TemperatureF,DewpointF,PressureIn,WindDirection,WindDirectionDegrees,WindSpeedMPH,WindSpeedGustMPH,Humidity,HourlyPrecipIn,Conditions,Clouds,dailyrainin,SoftwareType,DateUTC
2013-02-26 00:00:00,75.9,72.3,29.86,ESE,120,2.3,8.3,88,0.00,,---,0.00,VWS V13.01,2013-02-26 05:00:00,
2013-02-26 00:01:00,75.9,72.3,29.87,ESE,108,3.9,4.2,88,0.00,,---,0.00,VWS V13.01,2013-02-26 05:01:00,
2013-02-26 00:02:00,75.8,72.2,29.87,East,96,4.5,8.5,89,0.00,,---,0.00,VWS V13.01,2013-02-26 05:02:00,
2013-02-26 00:07:00,76.0,72.4,29.86,East,86,7.1,7.7,89,0.00,,---,0.00,VWS V13.01,2013-02-26 05:07:00,
2013-02-26 00:12:00,75.9,72.2,29.87,East,90,5.8,9.7,88,0.00,,---,0.00,VWS V13.01,2013-02-26 05:12:00,
2013-02-26 00:18:00,76.0,72.3,29.87,East,93,7.5,9.2,88,0.00,,---,0.00,VWS V13.01,2013-02-26 05:18:00,
2013-02-26 00:23:00,76.1,72.4,29.86,NE,46,2.1,7.1,88,0.00,,---,0.00,VWS V13.01,2013-02-26 05:23:00,
2013-02-26 00:28:00,76.0,72.2,29.86,ESE,111,5.0,9.7,88,0.00,,---,0.00,VWS V13.01,2013-02-26 05:28:00,
2013-02-26 00:33:00,75.9,72.1,29.86,East,83,7.0,9.3,88,0.00,,---,0.00,VWS V13.01,2013-02-26 05:33:00,
2013-02-26 00:38:00,75.8,71.9,29.86,East,79,4.0,4.0,88,0.00,,---,0.00,VWS V13.01,2013-02-26 05:38:00,
2013-02-26 00:43:00,75.7,71.8,29.86,ESE,117,4.6,4.6,88,0.00,,---,0.00,VWS V13.01,2013-02-26 05:43:00,
2013-02-26 00:48:00,75.7,71.8,29.86,East,83,2.5,7.0,88,0.00,,---,0.00,VWS V13.01,2013-02-26 05:48:00,
2013-02-26 00:53:00,75.8,71.9,29.86,ESE,120,5.8,7.6,88,0.00,,---,0.00,VWS V13.01,2013-02-26 05:53:00,
2013-02-26 00:58:00,75.8,71.8,29.86,East,79,7.8,9.1,88,0.00,,---,0.00,VWS V13.01,2013-02-26 05:58:00,
2013-02-26 01:03:00,75.9,71.9,29.85,ESE,114,2.1,5.7,87,0.00,,---,0.00,VWS V13.01,2013-02-26 06:03:00,
2013-02-26 01:08:00,76.0,71.9,29.85,ESE,104,7.6,8.9,87,0.00,,---,0.00,VWS V13.01,2013-02-26 06:08:00,
2013-02-26 01:13:00,75.8,71.6,29.84,ESE,107,4.6,7.8,87,0.00,,---,0.00,VWS V13.01,2013-02-26 06:13:00,
2013-02-26 01:18:00,75.8,71.4,29.84,WSW,238,4.8,8.4,86,0.00,,---,0.00,VWS V13.01,2013-02-26 06:18:00,
2013-02-26 01:23:00,75.7,71.3,29.84,East,82,6.6,9.8,86,0.00,,---,0.00,VWS V13.01,2013-02-26 06:23:00,
2013-02-26 01:28:00,75.7,71.2,29.84,SE,127,3.0,9.8,86,0.00,,---,0.00,VWS V13.01,2013-02-26 06:28:00,
2013-02-26 01:33:00,75.8,71.2,29.84,East,79,2.8,5.8,86,0.00,,---,0.00,VWS V13.01,2013-02-26 06:33:00,
2013-02-26 01:38:00,75.9,71.1,29.84,ESE,115,4.7,8.9,85,0.00,,---,0.00,VWS V13.01,2013-02-26 06:38:00,
2013-02-26 01:43:00,76.0,71.2,29.84,SE,124,7.8,7.8,85,0.00,,---,0.00,VWS V13.01,2013-02-26 06:43:00,
2013-02-26 01:48:00,75.9,71.0,29.84,NE,49,5.3,9.8,85,0.00,,---,0.00,VWS V13.01,2013-02-26 06:48:00,
2013-02-26 01:53:00,76.0,71.0,29.84,ESE,108,7.1,8.3,84,0.00,,---,0.00,VWS V13.01,2013-02-26 06:53:00,
2013-02-26 01:58:00,76.1,71.0,29.83,SE,127,6.5,7.4,84,0.00,,---,0.00,VWS V13.01,2013-02-26 06:58:00,
2013-02-26 02:03:00,75.9,70.8,29.83,ESE,117,9.8,10.6,84,0.00,,---,0.00,VWS V13.01,2013-02-26 07:03:00,
2013-02-26 02:08:00,76.1,71.1,29.83,SE,138,4.1,8.4,84,0.00,,---,0.00,VWS V13.01,2013-02-26 07:08:00,
2013-02-26 02:13:00,75.9,70.9,29.83,ESE,117,5.5,7.6,84,0.00,,---,0.00,VWS V13.01,2013-02-26 07:13:00,
2013-02-26 02:18:00,76.2,71.3,29.83,NNE,22,3.3,7.9,85,0.00,,---,0.00,VWS V13.01,2013-02-26 07:18:00,
2013-02-26 02:23:00,76.1,71.3,29.83,SSE,150,5.8,5.8,85,0.00,,---,0.00,VWS V13.01,2013-02-26 07:23:00,
2013-02-26 02:28:00,76.1,71.4,29.83,SSE,159,4.8,10.4,85,0.00,,---,0.00,VWS V13.01,2013-02-26 07:28:00,
2013-02-26 02:33:00,76.0,71.3,29.82,SSE,153,8.3,9.1,85,0.00,,---,0.00,VWS V13.01,2013-02-26 07:33:00,
2013-02-26 02:38:00,75.8,71.2,29.82,SSE,150,7.5,9.8,86,0.00,,---,0.00,VWS V13.01,2013-02-26 07:38:00,
2013-02-26 02:44:00,75.9,71.3,29.83,ESE,108,8.4,10.3,86,0.00,,---,0.00,VWS V13.01,2013-02-26 07:44:00,
2013-02-26 02:49:00,75.7,71.1,29.83,East,87,5.3,13.0,86,0.00,,---,0.00,VWS V13.01,2013-02-26 07:49:00,
2013-02-26 02:54:00,75.9,71.3,29.83,SE,146,4.9,7.3,86,0.00,,---,0.00,VWS V13.01,2013-02-26 07:54:00,
2013-02-26 02:59:00,75.9,71.3,29.83,ESE,118,5.8,9.6,86,0.00,,---,0.00,VWS V13.01,2013-02-26 07:59:00,
2013-02-26 03:04:00,75.8,71.3,29.82,East,89,9.1,9.1,86,0.00,,---,0.00,VWS V13.01,2013-02-26 08:04:00,
2013-02-26 03:09:00,76.0,71.7,29.82,East,101,4.4,8.6,87,0.00,,---,0.00,VWS V13.01,2013-02-26 08:09:00,
2013-02-26 03:14:00,75.7,71.6,29.82,East,93,6.8,17.3,87,0.00,,---,0.00,VWS V13.01,2013-02-26 08:14:00,
2013-02-26 03:19:00,75.7,71.6,29.82,SSE,155,8.0,15.7,87,0.00,,---,0.00,VWS V13.01,2013-02-26 08:19:00,
2013-02-26 03:24:00,75.7,71.6,29.82,SE,124,8.6,12.2,87,0.00,,---,0.00,VWS V13.01,2013-02-26 08:24:00,
2013-02-26 03:29:00,75.8,71.4,29.82,SSE,160,8.1,15.3,86,0.00,,---,0.00,VWS V13.01,2013-02-26 08:29:00,
2013-02-26 03:34:00,75.7,71.3,29.82,ESE,120,8.6,10.5,86,0.00,,---,0.00,VWS V13.01,2013-02-26 08:34:00,
2013-02-26 03:39:00,75.8,71.3,29.82,ESE,105,8.5,13.9,86,0.00,,---,0.00,VWS V13.01,2013-02-26 08:39:00,
2013-02-26 03:44:00,75.8,71.2,29.82,ESE,104,3.7,10.9,86,0.00,,---,0.00,VWS V13.01,2013-02-26 08:44:00,
2013-02-26 03:49:00,75.7,71.1,29.82,ESE,122,6.6,7.8,86,0.00,,---,0.00,VWS V13.01,2013-02-26 08:49:00,
2013-02-26 03:54:00,75.8,71.1,29.82,SE,145,8.7,8.7,85,0.00,,---,0.00,VWS V13.01,2013-02-26 08:54:00,
2013-02-26 03:59:00,75.9,71.2,29.82,SE,127,9.7,9.7,85,0.00,,---,0.00,VWS V13.01,2013-02-26 08:59:00,
2013-02-26 04:04:00,75.7,71.0,29.82,SE,129,10.6,10.6,85,0.00,,---,0.00,VWS V13.01,2013-02-26 09:04:00,
2013-02-26 04:09:00,75.5,70.9,29.83,SE,136,7.0,10.2,86,0.00,,---,0.00,VWS V13.01,2013-02-26 09:09:00,
2013-02-26 04:14:00,75.9,71.3,29.83,East,79,6.1,8.8,86,0.00,,---,0.00,VWS V13.01,2013-02-26 09:14:00,
2013-02-26 04:19:00,75.8,71.3,29.83,SE,134,8.0,8.8,86,0.00,,---,0.00,VWS V13.01,2013-02-26 09:19:00,
2013-02-26 04:24:00,75.9,71.5,29.83,SSE,148,4.0,9.5,86,0.00,,---,0.00,VWS V13.01,2013-02-26 09:24:00,
2013-02-26 04:29:00,75.9,71.5,29.83,East,97,6.3,10.4,86,0.00,,---,0.00,VWS V13.01,2013-02-26 09:29:00,
2013-02-26 04:34:00,75.9,71.5,29.83,SE,124,5.0,5.3,86,0.00,,---,0.00,VWS V13.01,2013-02-26 09:34:00,
2013-02-26 04:39:00,75.9,71.6,29.83,East,101,3.2,6.4,86,0.00,,---,0.00,VWS V13.01,2013-02-26 09:39:00,
2013-02-26 04:44:00,75.9,71.6,29.84,ESE,117,8.6,10.8,86,0.00,,---,0.00,VWS V13.01,2013-02-26 09:44:00,
2013-02-26 04:49:00,76.0,71.7,29.84,SE,143,5.4,5.5,86,0.00,,---,0.00,VWS V13.01,2013-02-26 09:49:00,
2013-02-26 04:54:00,76.0,71.7,29.83,East,101,6.1,7.5,86,0.00,,---,0.00,VWS V13.01,2013-02-26 09:54:00,
2013-02-26 04:59:00,75.8,71.4,29.83,SSE,152,5.8,7.6,86,0.00,,---,0.00,VWS V13.01,2013-02-26 09:59:00,
2013-02-26 05:05:00,75.8,71.3,29.83,SE,145,4.0,11.0,86,0.00,,---,0.00,VWS V13.01,2013-02-26 10:05:00,
2013-02-26 05:10:00,75.8,71.2,29.83,SE,128,6.2,8.3,86,0.00,,---,0.00,VWS V13.01,2013-02-26 10:10:00,
2013-02-26 05:15:00,75.9,71.3,29.83,SE,141,7.6,12.6,86,0.00,,---,0.00,VWS V13.01,2013-02-26 10:15:00,
2013-02-26 05:20:00,75.7,71.1,29.83,ESE,108,7.9,11.3,86,0.00,,---,0.00,VWS V13.01,2013-02-26 10:20:00,
2013-02-26 05:25:00,75.8,71.2,29.83,ESE,114,9.4,11.9,86,0.00,,---,0.00,VWS V13.01,2013-02-26 10:25:00,
2013-02-26 05:30:00,75.7,71.1,29.83,ESE,107,3.4,8.9,86,0.00,,---,0.00,VWS V13.01,2013-02-26 10:30:00,
2013-02-26 05:35:00,75.5,70.9,29.83,SSE,155,3.7,5.5,86,0.00,,---,0.00,VWS V13.01,2013-02-26 10:35:00,
2013-02-26 05:40:00,75.7,71.1,29.83,SSE,163,6.3,14.0,86,0.00,,---,0.00,VWS V13.01,2013-02-26 10:40:00,
2013-02-26 05:45:00,75.8,71.2,29.83,East,89,3.9,10.1,86,0.00,,---,0.00,VWS V13.01,2013-02-26 10:45:00,
2013-02-26 05:50:00,75.7,70.9,29.83,SE,143,10.3,17.6,85,0.00,,---,0.00,VWS V13.01,2013-02-26 10:50:00,
2013-02-26 05:55:00,75.6,70.6,29.84,ESE,108,9.6,12.3,85,0.00,,---,0.00,VWS V13.01,2013-02-26 10:55:00,
2013-02-26 06:00:00,75.7,70.7,29.84,SSE,165,3.9,7.4,84,0.00,,---,0.00,VWS V13.01,2013-02-26 11:00:00,
2013-02-26 06:05:00,75.6,70.7,29.84,East,98,4.7,5.8,85,0.00,,---,0.00,VWS V13.01,2013-02-26 11:05:00,
2013-02-26 06:10:00,75.6,70.7,29.84,SE,134,8.6,9.4,85,0.00,,---,0.00,VWS V13.01,2013-02-26 11:10:00,
2013-02-26 06:15:00,75.7,70.9,29.84,SSE,159,5.2,5.8,85,0.00,,---,0.00,VWS V13.01,2013-02-26 11:15:00,
2013-02-26 06:20:00,75.6,70.7,29.84,ESE,114,5.9,7.2,85,0.00,,---,0.00,VWS V13.01,2013-02-26 11:20:00,
2013-02-26 06:25:00,75.7,70.8,29.84,SSE,158,4.0,5.1,85,0.00,,---,0.00,VWS V13.01,2013-02-26 11:25:00,
2013-02-26 06:30:00,75.4,70.5,29.84,SE,128,4.3,5.7,85,0.00,,---,0.00,VWS V13.01,2013-02-26 11:30:00,
2013-02-26 06:35:00,75.8,70.8,29.84,SE,143,2.7,4.4,84,0.00,,---,0.00,VWS V13.01,2013-02-26 11:35:00,
2013-02-26 06:40:00,75.7,70.7,29.85,SE,139,3.5,5.7,84,0.00,,---,0.00,VWS V13.01,2013-02-26 11:40:00,
2013-02-26 06:45:00,75.8,70.8,29.85,East,93,3.4,6.8,84,0.00,,---,0.00,VWS V13.01,2013-02-26 11:45:00,
2013-02-26 06:50:00,75.9,70.8,29.85,SSE,159,7.3,9.0,84,0.00,,---,0.00,VWS V13.01,2013-02-26 11:50:00,
2013-02-26 06:55:00,76.0,70.9,29.85,ESE,103,3.9,4.1,84,0.00,,---,0.00,VWS V13.01,2013-02-26 11:55:00,
2013-02-26 07:00:00,76.1,71.0,29.85,ESE,118,3.7,3.7,84,0.00,,---,0.00,VWS V13.01,2013-02-26 12:00:00,
2013-02-26 07:05:00,76.0,70.9,29.85,East,100,3.5,8.3,84,0.00,,---,0.00,VWS V13.01,2013-02-26 12:05:00,
2013-02-26 07:10:00,76.3,71.2,29.86,ESE,110,5.1,8.7,84,0.00,,---,0.00,VWS V13.01,2013-02-26 12:10:00,
2013-02-26 07:15:00,76.4,71.3,29.86,SSE,165,3.2,7.0,84,0.00,,---,0.00,VWS V13.01,2013-02-26 12:15:00,
2013-02-26 07:20:00,76.4,71.3,29.86,ESE,114,3.9,8.1,84,0.00,,---,0.00,VWS V13.01,2013-02-26 12:20:00,
2013-02-26 07:25:00,76.4,71.3,29.86,ESE,114,4.8,8.1,84,0.00,,---,0.00,VWS V13.01,2013-02-26 12:25:00,
2013-02-26 07:30:00,76.8,72.0,29.86,South,170,4.5,5.2,85,0.00,,---,0.00,VWS V13.01,2013-02-26 12:30:00,
2013-02-26 07:36:00,76.4,71.8,29.87,ESE,120,2.9,7.8,86,0.00,,---,0.00,VWS V13.01,2013-02-26 12:36:00,
2013-02-26 07:41:00,76.6,72.1,29.87,South,169,9.7,9.7,86,0.00,,---,0.00,VWS V13.01,2013-02-26 12:41:00,
2013-02-26 07:46:00,76.8,72.3,29.87,SE,146,8.5,8.5,86,0.00,,---,0.00,VWS V13.01,2013-02-26 12:46:00,
2013-02-26 07:51:00,76.8,72.3,29.87,ESE,115,2.6,6.6,86,0.00,,---,0.00,VWS V13.01,2013-02-26 12:51:00,
2013-02-26 07:56:00,77.0,72.4,29.87,SE,145,3.5,6.2,86,0.00,,---,0.00,VWS V13.01,2013-02-26 12:56:00,
2013-02-26 08:01:00,77.1,72.3,29.87,South,172,3.7,4.7,85,0.00,,---,0.00,VWS V13.01,2013-02-26 13:01:00,
2013-02-26 08:06:00,77.4,72.1,29.88,SE,141,12.2,12.2,84,0.00,,---,0.00,VWS V13.01,2013-02-26 13:06:00,
2013-02-26 08:11:00,77.7,72.2,29.88,SSE,158,8.8,8.8,83,0.00,,---,0.00,VWS V13.01,2013-02-26 13:11:00,
2013-02-26 08:16:00,77.9,71.8,29.88,SSE,159,7.1,9.2,82,0.00,,---,0.00,VWS V13.01,2013-02-26 13:16:00,
2013-02-26 08:21:00,78.1,71.7,29.88,NE,56,5.1,11.8,81,0.00,,---,0.00,VWS V13.01,2013-02-26 13:21:00,
2013-02-26 08:26:00,78.1,71.3,29.88,East,79,12.9,13.3,80,0.00,,---,0.00,VWS V13.01,2013-02-26 13:26:00,
2013-02-26 08:31:00,78.2,71.5,29.88,SE,146,6.3,10.3,80,0.00,,---,0.00,VWS V13.01,2013-02-26 13:31:00,
2013-02-26 08:36:00,78.5,71.5,29.89,ESE,108,8.1,11.2,79,0.00,,---,0.00,VWS V13.01,2013-02-26 13:36:00,
2013-02-26 08:41:00,78.7,71.4,29.89,ESE,104,6.1,8.3,78,0.00,,---,0.00,VWS V13.01,2013-02-26 13:41:00,
2013-02-26 08:46:00,79.0,71.2,29.89,SSE,153,7.7,11.4,77,0.00,,---,0.00,VWS V13.01,2013-02-26 13:46:00,
2013-02-26 08:51:00,79.4,70.9,29.88,SE,143,8.1,10.3,75,0.00,,---,0.00,VWS V13.01,2013-02-26 13:51:00,
2013-02-26 08:56:00,79.8,70.3,29.88,SSE,150,12.8,18.8,73,0.00,,---,0.00,VWS V13.01,2013-02-26 13:56:00,
2013-02-26 09:01:00,79.9,70.2,29.89,SE,132,6.2,6.6,72,0.00,,---,0.00,VWS V13.01,2013-02-26 14:01:00,
2013-02-26 09:06:00,79.7,69.1,29.89,SE,145,6.8,8.5,70,0.00,,---,0.00,VWS V13.01,2013-02-26 14:06:00,
2013-02-26 09:11:00,79.8,69.7,29.89,SE,136,6.8,9.6,71,0.00,,---,0.00,VWS V13.01,2013-02-26 14:11:00,
2013-02-26 09:16:00,79.8,69.5,29.89,SE,138,12.8,12.8,71,0.00,,---,0.00,VWS V13.01,2013-02-26 14:16:00,
2013-02-26 09:21:00,79.3,69.1,29.89,South,177,8.6,10.3,71,0.00,,---,0.00,VWS V13.01,2013-02-26 14:21:00,
2013-02-26 09:26:00,79.9,69.6,29.89,ESE,112,5.2,6.6,71,0.00,,---,0.00,VWS V13.01,2013-02-26 14:26:00,
2013-02-26 09:31:00,80.4,69.8,29.89,East,79,6.4,8.3,70,0.00,,---,0.00,VWS V13.01,2013-02-26 14:31:00,
2013-02-26 09:37:00,80.8,68.8,29.89,SE,125,10.5,13.1,67,0.00,,---,0.00,VWS V13.01,2013-02-26 14:37:00,
2013-02-26 09:42:00,80.8,67.7,29.89,South,170,9.4,14.5,64,0.00,,---,0.00,VWS V13.01,2013-02-26 14:42:00,
2013-02-26 09:47:00,81.2,67.3,29.89,SE,128,8.4,9.0,63,0.00,,---,0.00,VWS V13.01,2013-02-26 14:47:00,
2013-02-26 09:52:00,80.5,66.6,29.89,SE,145,6.0,15.3,63,0.00,,---,0.00,VWS V13.01,2013-02-26 14:52:00,
2013-02-26 09:57:00,80.4,67.2,29.89,SE,136,11.3,14.4,64,0.00,,---,0.00,VWS V13.01,2013-02-26 14:57:00,
2013-02-26 10:02:00,80.5,67.6,29.89,South,172,9.3,11.2,65,0.00,,---,0.00,VWS V13.01,2013-02-26 15:02:00,
2013-02-26 10:07:00,80.9,68.0,29.90,SSE,162,9.6,14.0,65,0.00,,---,0.00,VWS V13.01,2013-02-26 15:07:00,
2013-02-26 10:12:00,81.0,67.8,29.90,ESE,114,11.1,15.8,64,0.00,,---,0.00,VWS V13.01,2013-02-26 15:12:00,
2013-02-26 10:17:00,81.2,68.2,29.89,ENE,60,5.5,14.0,65,0.00,,---,0.00,VWS V13.01,2013-02-26 15:17:00,
2013-02-26 10:22:00,81.5,68.6,29.89,East,79,6.9,9.1,65,0.00,,---,0.00,VWS V13.01,2013-02-26 15:22:00,
2013-02-26 10:27:00,81.8,68.6,29.90,SSE,150,8.9,8.9,64,0.00,,---,0.00,VWS V13.01,2013-02-26 15:27:00,
2013-02-26 10:32:00,81.9,68.2,29.89,ESE,118,6.5,8.1,63,0.00,,---,0.00,VWS V13.01,2013-02-26 15:32:00,
2013-02-26 10:37:00,82.3,68.6,29.89,ESE,118,8.6,8.6,63,0.00,,---,0.00,VWS V13.01,2013-02-26 15:37:00,
2013-02-26 10:42:00,82.2,67.8,29.89,SSW,204,6.2,9.8,62,0.00,,---,0.00,VWS V13.01,2013-02-26 15:42:00,
2013-02-26 10:47:00,82.2,67.8,29.89,South,169,9.9,9.9,62,0.00,,---,0.00,VWS V13.01,2013-02-26 15:47:00,
2013-02-26 10:52:00,82.2,68.4,29.89,SE,132,7.0,10.7,63,0.00,,---,0.00,VWS V13.01,2013-02-26 15:52:00,
2013-02-26 10:57:00,82.7,68.6,29.89,East,79,3.9,12.9,62,0.00,,---,0.00,VWS V13.01,2013-02-26 15:57:00,
2013-02-26 11:02:00,82.4,68.6,29.89,SE,145,13.0,18.6,63,0.00,,---,0.00,VWS V13.01,2013-02-26 16:02:00,
2013-02-26 11:07:00,82.4,69.7,29.89,SSE,158,3.8,4.3,66,0.00,,---,0.00,VWS V13.01,2013-02-26 16:07:00,
2013-02-26 11:12:00,82.4,69.7,29.88,SSE,159,5.8,8.0,66,0.00,,---,0.00,VWS V13.01,2013-02-26 16:12:00,
2013-02-26 11:18:00,82.5,69.6,29.89,East,79,5.3,8.4,65,0.00,,---,0.00,VWS V13.01,2013-02-26 16:18:00,
2013-02-26 11:23:00,82.3,69.3,29.89,SE,129,5.7,12.1,65,0.00,,---,0.00,VWS V13.01,2013-02-26 16:23:00,
2013-02-26 11:28:00,82.0,68.6,29.89,SE,135,10.3,14.3,64,0.00,,---,0.00,VWS V13.01,2013-02-26 16:28:00,
2013-02-26 11:33:00,82.1,68.9,29.89,ESE,108,4.8,10.1,64,0.00,,---,0.00,VWS V13.01,2013-02-26 16:33:00,
2013-02-26 11:38:00,81.6,68.5,29.89,ESE,118,10.1,14.6,65,0.00,,---,0.00,VWS V13.01,2013-02-26 16:38:00,
2013-02-26 11:43:00,81.5,69.3,29.90,East,90,3.8,7.6,67,0.00,,---,0.00,VWS V13.01,2013-02-26 16:43:00,
2013-02-26 11:48:00,81.0,68.6,29.90,SSE,155,13.0,18.1,66,0.00,,---,0.00,VWS V13.01,2013-02-26 16:48:00,
2013-02-26 11:53:00,81.3,69.8,29.90,ESE,112,11.0,12.1,68,0.00,,---,0.00,VWS V13.01,2013-02-26 16:53:00,
2013-02-26 11:58:00,82.0,69.3,29.90,East,96,6.8,20.0,66,0.00,,---,0.00,VWS V13.01,2013-02-26 16:58:00,
2013-02-26 12:03:00,81.3,69.3,29.90,East,84,10.7,17.4,67,0.00,,---,0.00,VWS V13.01,2013-02-26 17:03:00,
2013-02-26 12:08:00,81.2,70.4,29.90,South,170,6.5,7.0,70,0.00,,---,0.00,VWS V13.01,2013-02-26 17:08:00,
2013-02-26 12:13:00,80.9,70.6,29.90,ESE,122,11.2,11.8,71,0.00,,---,0.00,VWS V13.01,2013-02-26 17:13:00,
2013-02-26 12:18:00,80.6,70.2,29.90,South,176,5.8,6.3,71,0.00,,---,0.00,VWS V13.01,2013-02-26 17:18:00,
2013-02-26 12:23:00,81.1,70.8,29.89,SE,124,3.7,7.1,71,0.00,,---,0.00,VWS V13.01,2013-02-26 17:23:00,
2013-02-26 12:28:00,81.3,70.8,29.89,SSE,150,3.4,4.0,70,0.00,,---,0.00,VWS V13.01,2013-02-26 17:28:00,
2013-02-26 12:33:00,82.1,71.1,29.89,SSE,163,6.5,6.8,69,0.00,,---,0.00,VWS V13.01,2013-02-26 17:33:00,
2013-02-26 12:38:00,82.4,70.2,29.89,SSE,156,5.9,6.9,67,0.00,,---,0.00,VWS V13.01,2013-02-26 17:38:00,
2013-02-26 12:43:00,82.3,69.4,29.88,ESE,110,9.3,13.3,65,0.00,,---,0.00,VWS V13.01,2013-02-26 17:43:00,
2013-02-26 12:48:00,82.9,70.0,29.88,SSE,162,4.7,10.3,65,0.00,,---,0.00,VWS V13.01,2013-02-26 17:48:00,
2013-02-26 12:53:00,83.5,69.9,29.88,SSE,152,9.1,15.3,64,0.00,,---,0.00,VWS V13.01,2013-02-26 17:53:00,
2013-02-26 12:59:00,84.0,70.2,29.88,SW,218,8.3,9.3,63,0.00,,---,0.00,VWS V13.01,2013-02-26 17:59:00,
2013-02-26 13:04:00,83.5,69.6,29.87,SE,135,8.3,11.7,63,0.00,,---,0.00,VWS V13.01,2013-02-26 18:04:00,
2013-02-26 13:09:00,82.8,70.0,29.87,SE,142,7.1,15.7,65,0.00,,---,0.00,VWS V13.01,2013-02-26 18:09:00,
2013-02-26 13:14:00,82.5,70.5,29.87,SE,132,7.1,10.7,67,0.00,,---,0.00,VWS V13.01,2013-02-26 18:14:00,
2013-02-26 13:19:00,82.0,70.8,29.87,SE,131,5.2,9.4,69,0.00,,---,0.00,VWS V13.01,2013-02-26 18:19:00,
2013-02-26 13:24:00,82.1,70.9,29.85,SE,132,8.9,15.1,69,0.00,,---,0.00,VWS V13.01,2013-02-26 18:24:00,
2013-02-26 13:29:00,82.1,70.5,29.85,East,93,6.4,15.4,68,0.00,,---,0.00,VWS V13.01,2013-02-26 18:29:00,
2013-02-26 13:34:00,82.8,70.5,29.85,SE,124,6.4,15.3,66,0.00,,---,0.00,VWS V13.01,2013-02-26 18:34:00,
2013-02-26 13:39:00,82.7,70.1,29.85,SSE,158,9.4,14.1,66,0.00,,---,0.00,VWS V13.01,2013-02-26 18:39:00,
2013-02-26 13:44:00,83.5,70.9,29.85,ESE,117,5.7,11.1,66,0.00,,---,0.00,VWS V13.01,2013-02-26 18:44:00,
2013-02-26 13:49:00,83.3,70.4,29.85,East,94,10.9,16.1,65,0.00,,---,0.00,VWS V13.01,2013-02-26 18:49:00,
2013-02-26 13:54:00,83.0,70.0,29.85,ESE,112,6.5,10.7,65,0.00,,---,0.00,VWS V13.01,2013-02-26 18:54:00,
2013-02-26 13:59:00,83.4,70.8,29.84,East,82,8.3,9.2,66,0.00,,---,0.00,VWS V13.01,2013-02-26 18:59:00,
2013-02-26 14:04:00,83.0,71.0,29.84,SE,129,6.3,6.3,67,0.00,,---,0.00,VWS V13.01,2013-02-26 19:04:00,
2013-02-26 14:09:00,82.3,70.2,29.84,SE,134,2.8,10.9,67,0.00,,---,0.00,VWS V13.01,2013-02-26 19:09:00,
2013-02-26 14:14:00,82.5,70.6,29.84,ESE,103,8.5,8.6,67,0.00,,---,0.00,VWS V13.01,2013-02-26 19:14:00,
2013-02-26 14:19:00,82.1,70.3,29.84,SSE,160,5.6,13.2,68,0.00,,---,0.00,VWS V13.01,2013-02-26 19:19:00,
2013-02-26 14:24:00,81.8,69.9,29.84,SE,142,16.5,16.5,67,0.00,,---,0.00,VWS V13.01,2013-02-26 19:24:00,
2013-02-26 14:29:00,82.1,70.5,29.84,SE,134,14.6,14.6,68,0.00,,---,0.00,VWS V13.01,2013-02-26 19:29:00,
2013-02-26 14:34:00,82.3,71.0,29.83,SSE,156,4.1,7.8,69,0.00,,---,0.00,VWS V13.01,2013-02-26 19:34:00,
2013-02-26 14:39:00,82.5,70.8,29.83,SE,132,9.1,9.3,68,0.00,,---,0.00,VWS V13.01,2013-02-26 19:39:00,
2013-02-26 14:44:00,82.6,70.1,29.82,SE,146,9.8,15.4,66,0.00,,---,0.00,VWS V13.01,2013-02-26 19:44:00,
2013-02-26 14:49:00,82.1,69.5,29.83,SE,132,11.2,16.9,66,0.00,,---,0.00,VWS V13.01,2013-02-26 19:49:00,
2013-02-26 14:55:00,82.5,70.1,29.83,ENE,58,12.1,15.1,66,0.00,,---,0.00,VWS V13.01,2013-02-26 19:55:00,
2013-02-26 15:00:00,82.4,69.9,29.83,SSE,148,12.2,13.0,66,0.00,,---,0.00,VWS V13.01,2013-02-26 20:00:00,
2013-02-26 15:05:00,82.5,70.2,29.82,SSE,148,9.8,11.1,66,0.00,,---,0.00,VWS V13.01,2013-02-26 20:05:00,
2013-02-26 15:10:00,82.7,70.3,29.82,East,100,5.5,9.1,66,0.00,,---,0.00,VWS V13.01,2013-02-26 20:10:00,
2013-02-26 15:15:00,82.7,70.1,29.82,SE,142,13.8,17.1,66,0.00,,---,0.00,VWS V13.01,2013-02-26 20:15:00,
2013-02-26 15:20:00,82.8,70.2,29.82,SE,124,11.8,15.1,66,0.00,,---,0.00,VWS V13.01,2013-02-26 20:20:00,
2013-02-26 15:25:00,83.2,70.2,29.81,South,174,6.8,14.8,65,0.00,,---,0.00,VWS V13.01,2013-02-26 20:25:00,
2013-02-26 15:30:00,82.5,69.3,29.81,South,177,9.7,15.8,64,0.00,,---,0.00,VWS V13.01,2013-02-26 20:30:00,
2013-02-26 15:35:00,82.2,70.0,29.81,SSE,150,8.1,17.9,67,0.00,,---,0.00,VWS V13.01,2013-02-26 20:35:00,
2013-02-26 15:40:00,81.9,70.0,29.81,ESE,111,4.6,7.3,67,0.00,,---,0.00,VWS V13.01,2013-02-26 20:40:00,
2013-02-26 15:45:00,82.2,70.6,29.82,ESE,117,9.6,16.4,68,0.00,,---,0.00,VWS V13.01,2013-02-26 20:45:00,
2013-02-26 15:50:00,82.2,70.8,29.82,SE,136,8.1,8.9,69,0.00,,---,0.00,VWS V13.01,2013-02-26 20:50:00,
2013-02-26 15:55:00,81.1,70.1,29.83,SE,145,10.8,16.5,69,0.00,,---,0.00,VWS V13.01,2013-02-26 20:55:00,
2013-02-26 16:00:00,81.5,70.8,29.83,East,101,8.8,14.5,70,0.00,,---,0.00,VWS V13.01,2013-02-26 21:00:00,
2013-02-26 16:05:00,81.3,70.8,29.82,SE,146,16.3,16.3,71,0.00,,---,0.00,VWS V13.01,2013-02-26 21:05:00,
2013-02-26 16:10:00,81.4,71.1,29.83,SSE,152,8.0,11.2,71,0.00,,---,0.00,VWS V13.01,2013-02-26 21:10:00,
2013-02-26 16:15:00,81.5,71.4,29.82,ESE,104,5.4,11.1,72,0.00,,---,0.00,VWS V13.01,2013-02-26 21:15:00,
2013-02-26 16:20:00,81.4,71.1,29.83,SE,142,4.7,11.9,71,0.00,,---,0.00,VWS V13.01,2013-02-26 21:20:00,
2013-02-26 16:26:00,81.4,68.2,29.83,South,188,5.8,10.6,64,0.00,,---,0.00,VWS V13.01,2013-02-26 21:26:00,
2013-02-26 16:31:00,81.7,67.4,29.83,South,169,14.1,18.1,62,0.00,,---,0.00,VWS V13.01,2013-02-26 21:31:00,
2013-02-26 16:36:00,82.1,67.7,29.83,South,180,3.9,11.3,62,0.00,,---,0.00,VWS V13.01,2013-02-26 21:36:00,
2013-02-26 16:41:00,81.8,67.3,29.83,South,183,17.5,21.3,62,0.00,,---,0.00,VWS V13.01,2013-02-26 21:41:00,
2013-02-26 16:46:00,81.8,67.5,29.83,SW,218,11.9,16.8,62,0.00,,---,0.00,VWS V13.01,2013-02-26 21:46:00,
2013-02-26 16:51:00,81.7,67.7,29.82,SSE,148,14.5,15.3,62,0.00,,---,0.00,VWS V13.01,2013-02-26 21:51:00,
2013-02-26 16:56:00,81.9,68.1,29.83,SSE,165,7.6,14.3,63,0.00,,---,0.00,VWS V13.01,2013-02-26 21:56:00,
2013-02-26 17:01:00,81.8,68.2,29.83,SE,129,14.8,16.7,64,0.00,,---,0.00,VWS V13.01,2013-02-26 22:01:00,
2013-02-26 17:06:00,81.6,68.2,29.83,SSW,212,5.3,12.2,64,0.00,,---,0.00,VWS V13.01,2013-02-26 22:06:00,
2013-02-26 17:11:00,81.4,68.0,29.83,SSE,167,10.6,15.8,64,0.00,,---,0.00,VWS V13.01,2013-02-26 22:11:00,
2013-02-26 17:16:00,81.5,68.4,29.83,South,188,14.1,19.1,65,0.00,,---,0.00,VWS V13.01,2013-02-26 22:16:00,
2013-02-26 17:21:00,81.3,68.5,29.84,South,176,7.1,10.9,65,0.00,,---,0.00,VWS V13.01,2013-02-26 22:21:00,
2013-02-26 17:43:00,81.2,69.1,29.84,SSW,204,6.0,10.7,67,0.00,,---,0.00,VWS V13.01,2013-02-26 22:43:00,
2013-02-26 17:48:00,81.3,69.3,29.84,SSE,162,6.2,7.1,67,0.00,,---,0.00,VWS V13.01,2013-02-26 22:48:00,
2013-02-26 17:53:00,81.0,69.2,29.84,South,179,7.8,14.0,67,0.00,,---,0.00,VWS V13.01,2013-02-26 22:53:00,
2013-02-26 17:58:00,80.9,69.4,29.84,SW,221,6.0,7.8,68,0.00,,---,0.00,VWS V13.01,2013-02-26 22:58:00,
2013-02-26 18:03:00,81.2,69.8,29.85,South,169,10.0,10.0,68,0.00,,---,0.00,VWS V13.01,2013-02-26 23:03:00,
2013-02-26 18:08:00,80.6,69.4,29.85,South,169,6.2,8.0,69,0.00,,---,0.00,VWS V13.01,2013-02-26 23:08:00,
2013-02-26 18:13:00,80.5,69.5,29.85,South,173,13.9,13.9,69,0.00,,---,0.00,VWS V13.01,2013-02-26 23:13:00,
2013-02-26 18:18:00,80.4,69.5,29.86,South,169,12.7,12.7,70,0.00,,---,0.00,VWS V13.01,2013-02-26 23:18:00,
2013-02-26 18:23:00,80.8,70.0,29.85,SSE,152,3.1,6.0,70,0.00,,---,0.00,VWS V13.01,2013-02-26 23:23:00,
2013-02-26 18:28:00,80.7,69.8,29.85,SW,221,6.6,6.6,70,0.00,,---,0.00,VWS V13.01,2013-02-26 23:28:00,
2013-02-26 18:33:00,80.5,69.7,29.85,SSE,155,9.3,9.3,70,0.00,,---,0.00,VWS V13.01,2013-02-26 23:33:00,
2013-02-26 18:39:00,80.4,69.5,29.85,SSW,201,8.3,9.3,69,0.00,,---,0.00,VWS V13.01,2013-02-26 23:39:00,
2013-02-26 18:44:00,80.5,69.5,29.86,SSE,150,10.4,10.5,69,0.00,,---,0.00,VWS V13.01,2013-02-26 23:44:00,
2013-02-26 18:49:00,80.3,69.3,29.86,SSE,163,7.0,8.1,69,0.00,,---,0.00,VWS V13.01,2013-02-26 23:49:00,
2013-02-26 18:54:00,80.3,69.5,29.86,SSW,202,6.5,7.8,70,0.00,,---,0.00,VWS V13.01,2013-02-26 23:54:00,
2013-02-26 18:59:00,80.4,69.6,29.86,SSW,195,5.3,7.4,70,0.00,,---,0.00,VWS V13.01,2013-02-26 23:59:00,
2013-02-26 19:04:00,80.5,69.9,29.86,ESE,117,4.0,5.3,70,0.00,,---,0.00,VWS V13.01,2013-02-27 00:04:00,
2013-02-26 19:09:00,80.1,69.6,29.87,SW,219,5.1,10.3,70,0.00,,---,0.00,VWS V13.01,2013-02-27 00:09:00,
2013-02-26 19:14:00,80.2,69.8,29.87,SSW,208,3.9,7.1,71,0.00,,---,0.00,VWS V13.01,2013-02-27 00:14:00,
2013-02-26 19:19:00,80.1,69.8,29.87,South,183,8.3,9.6,71,0.00,,---,0.00,VWS V13.01,2013-02-27 00:19:00,
2013-02-26 19:24:00,80.1,70.0,29.87,South,177,4.6,7.0,71,0.00,,---,0.00,VWS V13.01,2013-02-27 00:24:00,
2013-02-26 19:29:00,79.9,69.9,29.87,ESE,118,5.1,8.3,72,0.00,,---,0.00,VWS V13.01,2013-02-27 00:29:00,
2013-02-26 19:34:00,79.8,70.0,29.87,SSW,204,3.5,4.0,72,0.00,,---,0.00,VWS V13.01,2013-02-27 00:34:00,
2013-02-26 19:39:00,79.5,69.9,29.87,South,179,4.9,4.9,73,0.00,,---,0.00,VWS V13.01,2013-02-27 00:39:00,
2013-02-26 19:44:00,79.7,70.2,29.88,SW,221,5.0,5.0,73,0.00,,---,0.00,VWS V13.01,2013-02-27 00:44:00,
2013-02-26 19:49:00,79.4,70.1,29.88,South,174,5.2,6.5,73,0.00,,---,0.00,VWS V13.01,2013-02-27 00:49:00,
2013-02-26 19:54:00,79.3,70.2,29.88,South,170,2.4,5.5,74,0.00,,---,0.00,VWS V13.01,2013-02-27 00:54:00,
2013-02-26 19:59:00,79.4,70.5,29.88,SE,141,4.0,4.7,74,0.00,,---,0.00,VWS V13.01,2013-02-27 00:59:00,
2013-02-26 20:04:00,79.3,70.5,29.88,South,170,7.5,7.6,74,0.00,,---,0.00,VWS V13.01,2013-02-27 01:04:00,
2013-02-26 20:09:00,79.0,70.3,29.88,South,172,3.6,8.6,75,0.00,,---,0.00,VWS V13.01,2013-02-27 01:09:00,
2013-02-26 20:14:00,79.1,70.6,29.88,SE,136,3.9,3.9,75,0.00,,---,0.00,VWS V13.01,2013-02-27 01:14:00,
2013-02-26 20:19:00,79.2,70.8,29.88,SE,129,2.9,5.5,76,0.00,,---,0.00,VWS V13.01,2013-02-27 01:19:00,
2013-02-26 20:24:00,79.1,70.9,29.89,SSE,162,3.3,7.3,76,0.00,,---,0.00,VWS V13.01,2013-02-27 01:24:00,
2013-02-26 20:29:00,78.9,70.8,29.89,SSE,150,2.2,4.8,76,0.00,,---,0.00,VWS V13.01,2013-02-27 01:29:00,
2013-02-26 20:34:00,78.9,71.0,29.89,South,176,4.0,4.2,77,0.00,,---,0.00,VWS V13.01,2013-02-27 01:34:00,
2013-02-26 20:39:00,78.8,71.0,29.89,SE,145,3.4,4.4,77,0.00,,---,0.00,VWS V13.01,2013-02-27 01:39:00,
2013-02-26 20:44:00,78.7,71.0,29.90,ESE,121,2.4,3.7,77,0.00,,---,0.00,VWS V13.01,2013-02-27 01:44:00,
2013-02-26 20:50:00,78.8,71.0,29.90,SE,135,1.6,3.5,77,0.00,,---,0.00,VWS V13.01,2013-02-27 01:50:00,
2013-02-26 20:55:00,78.9,71.1,29.89,ESE,122,5.7,5.7,77,0.00,,---,0.00,VWS V13.01,2013-02-27 01:55:00,
2013-02-26 21:00:00,78.7,70.8,29.90,SSW,205,5.5,6.0,77,0.00,,---,0.00,VWS V13.01,2013-02-27 02:00:00,
2013-02-26 21:05:00,79.0,71.1,29.90,SE,138,1.5,5.0,77,0.00,,---,0.00,VWS V13.01,2013-02-27 02:05:00,
2013-02-26 21:10:00,79.1,71.2,29.90,South,180,4.7,6.7,77,0.00,,---,0.00,VWS V13.01,2013-02-27 02:10:00,
2013-02-26 21:15:00,78.7,70.8,29.90,SSE,165,2.9,6.3,77,0.00,,---,0.00,VWS V13.01,2013-02-27 02:15:00,
2013-02-26 21:20:00,78.8,71.1,29.90,South,169,4.4,5.3,77,0.00,,---,0.00,VWS V13.01,2013-02-27 02:20:00,
2013-02-26 21:26:00,78.8,71.1,29.90,SE,142,3.0,4.1,77,0.00,,---,0.00,VWS V13.01,2013-02-27 02:26:00,
2013-02-26 21:31:00,78.8,71.3,29.90,ESE,121,3.0,7.0,78,0.00,,---,0.00,VWS V13.01,2013-02-27 02:31:00,
2013-02-26 21:36:00,78.5,71.2,29.90,ESE,121,4.0,4.4,78,0.00,,---,0.00,VWS V13.01,2013-02-27 02:36:00,
2013-02-26 21:41:00,78.2,71.5,29.90,SSE,155,4.8,5.8,80,0.00,,---,0.00,VWS V13.01,2013-02-27 02:41:00,
2013-02-26 21:46:00,78.1,71.8,29.90,SE,138,4.3,6.5,81,0.00,,---,0.00,VWS V13.01,2013-02-27 02:46:00,
2013-02-26 21:51:00,78.1,72.1,29.90,SSE,167,3.8,4.9,82,0.00,,---,0.00,VWS V13.01,2013-02-27 02:51:00,
2013-02-26 21:57:00,77.9,72.1,29.91,SSE,150,6.0,7.5,82,0.00,,---,0.00,VWS V13.01,2013-02-27 02:57:00,
2013-02-26 22:02:00,77.7,72.4,29.91,ESE,121,7.0,9.4,84,0.00,,---,0.00,VWS V13.01,2013-02-27 03:02:00,
2013-02-26 22:07:00,77.5,72.5,29.91,SE,124,7.6,7.8,85,0.00,,---,0.00,VWS V13.01,2013-02-27 03:07:00,
2013-02-26 22:12:00,77.7,72.9,29.91,SE,143,3.2,5.3,85,0.00,,---,0.00,VWS V13.01,2013-02-27 03:12:00,
2013-02-26 22:17:00,77.4,72.8,29.91,SSE,167,5.0,6.5,86,0.00,,---,0.00,VWS V13.01,2013-02-27 03:17:00,
2013-02-26 22:22:00,77.3,73.0,29.91,ESE,117,5.8,8.6,86,0.00,,---,0.00,VWS V13.01,2013-02-27 03:22:00,
2013-02-26 22:27:00,77.2,72.9,29.91,SE,125,3.6,4.3,86,0.00,,---,0.00,VWS V13.01,2013-02-27 03:27:00,
2013-02-26 22:32:00,77.1,72.9,29.92,SE,146,5.9,5.9,87,0.00,,---,0.00,VWS V13.01,2013-02-27 03:32:00,
2013-02-26 22:37:00,77.1,73.0,29.91,SE,139,5.6,6.0,87,0.00,,---,0.00,VWS V13.01,2013-02-27 03:37:00,
2013-02-26 22:42:00,77.0,73.0,29.91,East,79,3.9,5.5,87,0.00,,---,0.00,VWS V13.01,2013-02-27 03:42:00,
2013-02-26 22:47:00,77.0,72.9,29.91,ESE,121,4.2,5.4,87,0.00,,---,0.00,VWS V13.01,2013-02-27 03:47:00,
2013-02-26 22:52:00,77.0,73.0,29.91,SE,138,8.2,8.7,88,0.00,,---,0.00,VWS V13.01,2013-02-27 03:52:00,
2013-02-26 22:57:00,77.0,73.0,29.91,ENE,75,1.9,5.0,88,0.00,,---,0.00,VWS V13.01,2013-02-27 03:57:00,
2013-02-26 23:02:00,77.1,73.2,29.91,SSE,152,2.2,5.0,88,0.00,,---,0.00,VWS V13.01,2013-02-27 04:02:00,
2013-02-26 23:08:00,76.9,73.0,29.91,SSE,162,3.6,4.5,88,0.00,,---,0.00,VWS V13.01,2013-02-27 04:08:00,
2013-02-26 23:13:00,76.9,73.1,29.91,SE,139,6.2,8.1,88,0.00,,---,0.00,VWS V13.01,2013-02-27 04:13:00,
2013-02-26 23:18:00,77.1,73.3,29.91,South,179,4.8,5.0,88,0.00,,---,0.00,VWS V13.01,2013-02-27 04:18:00,
2013-02-26 23:23:00,76.8,73.0,29.90,SSW,198,4.2,7.1,88,0.00,,---,0.00,VWS V13.01,2013-02-27 04:23:00,
2013-02-26 23:28:00,77.0,73.2,29.90,SSE,155,5.5,6.1,88,0.00,,---,0.00,VWS V13.01,2013-02-27 04:28:00,
2013-02-26 23:33:00,76.9,73.1,29.90,SE,142,3.5,6.2,88,0.00,,---,0.00,VWS V13.01,2013-02-27 04:33:00,
2013-02-26 23:38:00,77.1,73.2,29.90,SSE,153,4.3,4.9,88,0.00,,---,0.00,VWS V13.01,2013-02-27 04:38:00,
2013-02-26 23:43:00,77.0,73.0,29.90,SSE,152,3.4,4.0,87,0.00,,---,0.00,VWS V13.01,2013-02-27 04:43:00,
2013-02-26 23:48:00,77.2,73.1,29.90,SSE,167,3.6,4.3,87,0.00,,---,0.00,VWS V13.01,2013-02-27 04:48:00,
2013-02-26 23:53:00,77.0,72.9,29.90,South,176,2.7,4.8,87,0.00,,---,0.00,VWS V13.01,2013-02-27 04:53:00,
2013-02-26 23:58:00,77.1,73.0,29.91,South,173,3.8,4.2,87,0.00,,---,0.00,VWS V13.01,2013-02-27 04:58:00,